BAW450 EGLL-LEIB
Flight info
| Callsign | BAW450 |
|---|---|
| Flight time | N/A |
| Altitude | 27000 |
| Route | MAXIT Y803 MID L151 SITET UN859 LGL/N0452F350 UN859 SOPIL DCT BALAN DCT EVPOK DCT NARAK DCT GAI DCT LOMRA DCT ROCAN DCT PUMAL DCT XEPLA DCT BCN Z174 CORDA |
| Aircraft | A21N/M-SDE2E3FGHIRWXY/LB1 |
Departure
| Time | 2026-05-08 08:35 |
|---|---|
| Airport | London Heathrow Airport (EGLL) |
Arrival
| Time | N/A |
|---|---|
| Airport | Ibiza Airport (LEIB) |
| Time | Latitude | Longitude | Altitude | Speed | Heading |
|---|---|---|---|---|---|
| 2026-05-08 07:49 | 51.47087 | -0.48577 | 92 ft | 0 kts | 270° |
| 2026-05-08 08:22 | 51.47087 | -0.48544 | 92 ft | 4 kts | 270° |
| 2026-05-08 08:22 | 51.47088 | -0.48509 | 91 ft | 4 kts | 261° |
| 2026-05-08 08:22 | 51.47097 | -0.48477 | 93 ft | 4 kts | 206° |
| 2026-05-08 08:23 | 51.47120 | -0.48472 | 94 ft | 4 kts | 180° |
| 2026-05-08 08:23 | 51.47132 | -0.48472 | 91 ft | 0 kts | 180° |
| 2026-05-08 08:29 | 51.47126 | -0.48472 | 91 ft | 3 kts | 179° |
| 2026-05-08 08:29 | 51.47095 | -0.48471 | 91 ft | 6 kts | 179° |
| 2026-05-08 08:29 | 51.47045 | -0.48471 | 91 ft | 8 kts | 180° |
| 2026-05-08 08:30 | 51.46987 | -0.48471 | 94 ft | 9 kts | 180° |
| 2026-05-08 08:30 | 51.46919 | -0.48470 | 94 ft | 10 kts | 180° |
| 2026-05-08 08:30 | 51.46838 | -0.48470 | 93 ft | 0 kts | 180° |
| 2026-05-08 08:31 | 51.46839 | -0.48470 | 93 ft | 0 kts | 180° |
| 2026-05-08 08:31 | 51.46829 | -0.48470 | 91 ft | 4 kts | 180° |
| 2026-05-08 08:31 | 51.46798 | -0.48470 | 91 ft | 5 kts | 180° |
| 2026-05-08 08:32 | 51.46760 | -0.48485 | 91 ft | 6 kts | 216° |
| 2026-05-08 08:32 | 51.46741 | -0.48556 | 91 ft | 8 kts | 266° |
| 2026-05-08 08:32 | 51.46739 | -0.48650 | 91 ft | 9 kts | 268° |
| 2026-05-08 08:32 | 51.46713 | -0.48741 | 91 ft | 10 kts | 208° |
| 2026-05-08 08:33 | 51.46655 | -0.48751 | 93 ft | 9 kts | 180° |
| 2026-05-08 08:33 | 51.46588 | -0.48774 | 93 ft | 11 kts | 199° |
| 2026-05-08 08:33 | 51.46518 | -0.48781 | 93 ft | 11 kts | 157° |
| 2026-05-08 08:33 | 51.46476 | -0.48680 | 91 ft | 12 kts | 90° |
| 2026-05-08 08:34 | 51.46480 | -0.48532 | 92 ft | 18 kts | 89° |
| 2026-05-08 08:34 | 51.46481 | -0.47961 | 92 ft | 86 kts | 90° |
| 2026-05-08 08:34 | 51.46485 | -0.46662 | 96 ft | 144 kts | 90° |
| 2026-05-08 08:34 | 51.46486 | -0.44836 | 262 ft | 173 kts | 90° |
| 2026-05-08 08:35 | 51.46470 | -0.42934 | 936 ft | 173 kts | 92° |
| 2026-05-08 08:35 | 51.46269 | -0.41021 | 1628 ft | 175 kts | 112° |
| 2026-05-08 08:35 | 51.45673 | -0.39357 | 2396 ft | 171 kts | 133° |
| 2026-05-08 08:35 | 51.44758 | -0.38181 | 3146 ft | 169 kts | 151° |
| 2026-05-08 08:36 | 51.43680 | -0.37384 | 3834 ft | 173 kts | 158° |
| 2026-05-08 08:36 | 51.42529 | -0.36708 | 4476 ft | 180 kts | 160° |
| 2026-05-08 08:36 | 51.41298 | -0.36174 | 5134 ft | 187 kts | 172° |
| 2026-05-08 08:36 | 51.39955 | -0.36202 | 5616 ft | 207 kts | 188° |
| 2026-05-08 08:37 | 51.38476 | -0.36958 | 5812 ft | 239 kts | 205° |
| 2026-05-08 08:37 | 51.36968 | -0.38344 | 6217 ft | 258 kts | 210° |
| 2026-05-08 08:37 | 51.35440 | -0.39858 | 6713 ft | 264 kts | 211° |
| 2026-05-08 08:37 | 51.33796 | -0.41152 | 6655 ft | 263 kts | 200° |
| 2026-05-08 08:38 | 51.32098 | -0.42188 | 6531 ft | 260 kts | 200° |
| 2026-05-08 08:38 | 51.30429 | -0.43299 | 6394 ft | 260 kts | 202° |
| 2026-05-08 08:38 | 51.28782 | -0.44478 | 6252 ft | 260 kts | 204° |
| 2026-05-08 08:38 | 51.27146 | -0.45700 | 6128 ft | 259 kts | 204° |
| 2026-05-08 08:39 | 51.25520 | -0.46934 | 6003 ft | 259 kts | 204° |
| 2026-05-08 08:39 | 51.24017 | -0.48496 | 5931 ft | 261 kts | 223° |
| 2026-05-08 08:39 | 51.22853 | -0.50680 | 5959 ft | 262 kts | 230° |
| 2026-05-08 08:39 | 51.21746 | -0.52996 | 6518 ft | 265 kts | 231° |
| 2026-05-08 08:40 | 51.20631 | -0.55348 | 7329 ft | 267 kts | 231° |
| 2026-05-08 08:40 | 51.19497 | -0.57712 | 8191 ft | 269 kts | 231° |
| 2026-05-08 08:40 | 51.18343 | -0.60083 | 9048 ft | 272 kts | 231° |
| 2026-05-08 08:40 | 51.16988 | -0.62185 | 9869 ft | 274 kts | 213° |
| 2026-05-08 08:41 | 51.15212 | -0.63371 | 10462 ft | 287 kts | 191° |
| 2026-05-08 08:41 | 51.13141 | -0.63477 | 10791 ft | 310 kts | 178° |
| 2026-05-08 08:41 | 51.10915 | -0.63199 | 11074 ft | 331 kts | 176° |
| 2026-05-08 08:41 | 51.08554 | -0.62908 | 11349 ft | 350 kts | 177° |
| 2026-05-08 08:42 | 51.06070 | -0.62563 | 11589 ft | 368 kts | 173° |
| 2026-05-08 08:42 | 51.03590 | -0.61444 | 11939 ft | 382 kts | 160° |
| 2026-05-08 08:42 | 51.01126 | -0.59801 | 12501 ft | 386 kts | 158° |
| 2026-05-08 08:42 | 50.98644 | -0.58103 | 13085 ft | 390 kts | 159° |
| 2026-05-08 08:43 | 50.96138 | -0.56410 | 13659 ft | 393 kts | 159° |
| 2026-05-08 08:43 | 50.93612 | -0.54726 | 14157 ft | 395 kts | 159° |
| 2026-05-08 08:43 | 50.91064 | -0.53041 | 14641 ft | 398 kts | 159° |
| 2026-05-08 08:43 | 50.88499 | -0.51354 | 15107 ft | 401 kts | 159° |
| 2026-05-08 08:44 | 50.85916 | -0.49663 | 15565 ft | 403 kts | 159° |
| 2026-05-08 08:44 | 50.83347 | -0.47985 | 16023 ft | 406 kts | 159° |
| 2026-05-08 08:44 | 50.80732 | -0.46276 | 16466 ft | 408 kts | 159° |
| 2026-05-08 08:44 | 50.78099 | -0.44554 | 16885 ft | 410 kts | 159° |
| 2026-05-08 08:45 | 50.75457 | -0.42824 | 17287 ft | 412 kts | 159° |
| 2026-05-08 08:45 | 50.72799 | -0.41091 | 17681 ft | 415 kts | 159° |
| 2026-05-08 08:45 | 50.70124 | -0.39352 | 18069 ft | 417 kts | 159° |
| 2026-05-08 08:45 | 50.67437 | -0.37599 | 18441 ft | 419 kts | 159° |
| 2026-05-08 08:46 | 50.64732 | -0.35838 | 18768 ft | 421 kts | 159° |
| 2026-05-08 08:46 | 50.62019 | -0.34078 | 19100 ft | 423 kts | 159° |
| 2026-05-08 08:46 | 50.59325 | -0.32330 | 19428 ft | 425 kts | 159° |
| 2026-05-08 08:46 | 50.56586 | -0.30552 | 19751 ft | 427 kts | 159° |
| 2026-05-08 08:47 | 50.53833 | -0.28765 | 20087 ft | 429 kts | 159° |
| 2026-05-08 08:47 | 50.51064 | -0.26974 | 20415 ft | 431 kts | 159° |
| 2026-05-08 08:47 | 50.48285 | -0.25180 | 20743 ft | 433 kts | 159° |
| 2026-05-08 08:47 | 50.45496 | -0.23381 | 21077 ft | 435 kts | 159° |
| 2026-05-08 08:48 | 50.42688 | -0.21570 | 21412 ft | 437 kts | 159° |
| 2026-05-08 08:48 | 50.39871 | -0.19758 | 21752 ft | 439 kts | 159° |
| 2026-05-08 08:48 | 50.37079 | -0.17968 | 22099 ft | 441 kts | 159° |
| 2026-05-08 08:48 | 50.34236 | -0.16147 | 22430 ft | 443 kts | 159° |
| 2026-05-08 08:49 | 50.31375 | -0.14310 | 22770 ft | 445 kts | 159° |
| 2026-05-08 08:49 | 50.28507 | -0.12471 | 23126 ft | 447 kts | 159° |
| 2026-05-08 08:49 | 50.25622 | -0.10627 | 23487 ft | 449 kts | 159° |
| 2026-05-08 08:49 | 50.22720 | -0.08774 | 23835 ft | 451 kts | 159° |
| 2026-05-08 08:50 | 50.19831 | -0.06862 | 24207 ft | 452 kts | 157° |
| 2026-05-08 08:50 | 50.16955 | -0.04862 | 24574 ft | 453 kts | 157° |
| 2026-05-08 08:50 | 50.14111 | -0.02884 | 24917 ft | 454 kts | 157° |
| 2026-05-08 08:50 | 50.11215 | -0.00885 | 25289 ft | 455 kts | 158° |
| 2026-05-08 08:51 | 50.08237 | 0.00687 | 25826 ft | 450 kts | 166° |
| 2026-05-08 08:51 | 50.05213 | 0.01901 | 26296 ft | 448 kts | 167° |
| 2026-05-08 08:51 | 50.02189 | 0.03085 | 26698 ft | 448 kts | 167° |
| 2026-05-08 08:51 | 49.99161 | 0.04273 | 27032 ft | 450 kts | 167° |
| 2026-05-08 08:52 | 49.96124 | 0.05467 | 27099 ft | 451 kts | 168° |
| 2026-05-08 08:52 | 49.93074 | 0.06665 | 27105 ft | 453 kts | 168° |
| 2026-05-08 08:52 | 49.90063 | 0.07842 | 27096 ft | 453 kts | 168° |
| 2026-05-08 08:52 | 49.87006 | 0.09039 | 27081 ft | 453 kts | 168° |
| 2026-05-08 08:53 | 49.83952 | 0.10233 | 27079 ft | 453 kts | 168° |
| 2026-05-08 08:53 | 49.80894 | 0.11429 | 27078 ft | 453 kts | 168° |
| 2026-05-08 08:53 | 49.77840 | 0.12622 | 27073 ft | 453 kts | 168° |
| 2026-05-08 08:53 | 49.74781 | 0.13814 | 27074 ft | 453 kts | 168° |
| 2026-05-08 08:54 | 49.71720 | 0.15007 | 27075 ft | 455 kts | 168° |
| 2026-05-08 08:54 | 49.68641 | 0.16205 | 27076 ft | 456 kts | 168° |
| 2026-05-08 08:54 | 49.65570 | 0.17414 | 27081 ft | 456 kts | 167° |
| 2026-05-08 08:54 | 49.62538 | 0.18641 | 27080 ft | 456 kts | 167° |
| 2026-05-08 08:55 | 49.59472 | 0.19889 | 27080 ft | 456 kts | 167° |
| 2026-05-08 08:55 | 49.56401 | 0.21132 | 27083 ft | 456 kts | 167° |
| 2026-05-08 08:55 | 49.53330 | 0.22369 | 27083 ft | 456 kts | 167° |
| 2026-05-08 08:55 | 49.50252 | 0.23602 | 27067 ft | 460 kts | 168° |
| 2026-05-08 08:56 | 49.47145 | 0.24837 | 27072 ft | 461 kts | 168° |
| 2026-05-08 08:56 | 49.44037 | 0.26073 | 27055 ft | 461 kts | 168° |
| 2026-05-08 08:56 | 49.40929 | 0.27312 | 27051 ft | 462 kts | 168° |
| 2026-05-08 08:56 | 49.37862 | 0.28536 | 27059 ft | 461 kts | 168° |
| 2026-05-08 08:57 | 49.34754 | 0.29777 | 27055 ft | 462 kts | 168° |
| 2026-05-08 08:57 | 49.31650 | 0.31015 | 27056 ft | 462 kts | 168° |
| 2026-05-08 08:57 | 49.28542 | 0.32279 | 27041 ft | 464 kts | 167° |
| 2026-05-08 08:57 | 49.25424 | 0.33602 | 27248 ft | 465 kts | 167° |
| 2026-05-08 08:58 | 49.22305 | 0.34932 | 27635 ft | 466 kts | 167° |
| 2026-05-08 08:58 | 49.19178 | 0.36258 | 27968 ft | 467 kts | 168° |
| 2026-05-08 08:58 | 49.16034 | 0.37584 | 28289 ft | 469 kts | 168° |
| 2026-05-08 08:58 | 49.12882 | 0.38907 | 28613 ft | 471 kts | 168° |
| 2026-05-08 08:59 | 49.09760 | 0.40215 | 28916 ft | 473 kts | 168° |
| 2026-05-08 08:59 | 49.06577 | 0.41548 | 29141 ft | 476 kts | 168° |
| 2026-05-08 08:59 | 49.03365 | 0.42889 | 29324 ft | 480 kts | 168° |
| 2026-05-08 08:59 | 49.00131 | 0.44239 | 29604 ft | 483 kts | 168° |
| 2026-05-08 09:00 | 48.96905 | 0.45582 | 30147 ft | 478 kts | 169° |
| 2026-05-08 09:00 | 48.93717 | 0.46912 | 30637 ft | 473 kts | 169° |
| 2026-05-08 09:00 | 48.90547 | 0.48234 | 30961 ft | 473 kts | 169° |
| 2026-05-08 09:00 | 48.87374 | 0.49554 | 31235 ft | 473 kts | 169° |
| 2026-05-08 09:01 | 48.84239 | 0.50858 | 31502 ft | 474 kts | 169° |
| 2026-05-08 09:01 | 48.81060 | 0.52176 | 31778 ft | 474 kts | 169° |
| 2026-05-08 09:01 | 48.77878 | 0.53490 | 32064 ft | 474 kts | 169° |
| 2026-05-08 09:01 | 48.74687 | 0.54754 | 32334 ft | 474 kts | 170° |
| 2026-05-08 09:02 | 48.71494 | 0.55991 | 32596 ft | 474 kts | 170° |
| 2026-05-08 09:02 | 48.68299 | 0.57233 | 32849 ft | 474 kts | 170° |
| 2026-05-08 09:02 | 48.65103 | 0.58482 | 33107 ft | 474 kts | 169° |
| 2026-05-08 09:02 | 48.61902 | 0.59732 | 33271 ft | 476 kts | 170° |
| 2026-05-08 09:03 | 48.58684 | 0.60986 | 33418 ft | 479 kts | 170° |
| 2026-05-08 09:03 | 48.55497 | 0.62233 | 33605 ft | 480 kts | 170° |
| 2026-05-08 09:03 | 48.52263 | 0.63494 | 33833 ft | 480 kts | 170° |
| 2026-05-08 09:03 | 48.49032 | 0.64774 | 34066 ft | 480 kts | 169° |
| 2026-05-08 09:04 | 48.45811 | 0.66092 | 34285 ft | 479 kts | 169° |
| 2026-05-08 09:04 | 48.42600 | 0.67411 | 34490 ft | 478 kts | 169° |
| 2026-05-08 09:04 | 48.39390 | 0.68722 | 34669 ft | 478 kts | 169° |
| 2026-05-08 09:04 | 48.36183 | 0.70024 | 34846 ft | 477 kts | 169° |
| 2026-05-08 09:05 | 48.32978 | 0.71324 | 35030 ft | 477 kts | 169° |
| 2026-05-08 09:05 | 48.29817 | 0.72607 | 35062 ft | 477 kts | 169° |
| 2026-05-08 09:05 | 48.23423 | 0.75188 | 35043 ft | 475 kts | 169° |
| 2026-05-08 09:06 | 48.17013 | 0.77712 | 35016 ft | 477 kts | 169° |
| 2026-05-08 09:06 | 48.10600 | 0.80226 | 35024 ft | 477 kts | 169° |
| 2026-05-08 09:07 | 48.04224 | 0.82718 | 35021 ft | 477 kts | 169° |
| 2026-05-08 09:07 | 47.97807 | 0.85222 | 35021 ft | 477 kts | 169° |
| 2026-05-08 09:08 | 47.91420 | 0.87716 | 35026 ft | 474 kts | 169° |
| 2026-05-08 09:08 | 47.85045 | 0.90200 | 35024 ft | 474 kts | 169° |
| 2026-05-08 09:09 | 47.78710 | 0.92658 | 34994 ft | 474 kts | 169° |
| 2026-05-08 09:09 | 47.72315 | 0.95133 | 35016 ft | 474 kts | 169° |
| 2026-05-08 09:10 | 47.65929 | 0.97596 | 35017 ft | 474 kts | 169° |
| 2026-05-08 09:10 | 47.59540 | 1.00057 | 35015 ft | 474 kts | 169° |
| 2026-05-08 09:11 | 47.53186 | 1.02492 | 35008 ft | 475 kts | 169° |
| 2026-05-08 09:11 | 47.46789 | 1.04944 | 35008 ft | 475 kts | 169° |
| 2026-05-08 09:12 | 47.40337 | 1.06450 | 35007 ft | 466 kts | 184° |
| 2026-05-08 09:12 | 47.33873 | 1.06282 | 34993 ft | 465 kts | 186° |
| 2026-05-08 09:13 | 47.27455 | 1.06077 | 34998 ft | 465 kts | 186° |
| 2026-05-08 09:13 | 47.20991 | 1.05921 | 34998 ft | 465 kts | 186° |
| 2026-05-08 09:14 | 47.14531 | 1.05773 | 34984 ft | 464 kts | 186° |
| 2026-05-08 09:14 | 47.08074 | 1.05622 | 34991 ft | 464 kts | 186° |
| 2026-05-08 09:15 | 47.01617 | 1.05470 | 34992 ft | 464 kts | 186° |
| 2026-05-08 09:15 | 46.95214 | 1.05196 | 34980 ft | 463 kts | 187° |
| 2026-05-08 09:16 | 46.88774 | 1.04904 | 34985 ft | 463 kts | 187° |
| 2026-05-08 09:16 | 46.82333 | 1.04629 | 34988 ft | 463 kts | 187° |
| 2026-05-08 09:17 | 46.75895 | 1.04352 | 34985 ft | 463 kts | 187° |
| 2026-05-08 09:17 | 46.69506 | 1.04084 | 34986 ft | 463 kts | 187° |
| 2026-05-08 09:18 | 46.63064 | 1.03807 | 34989 ft | 463 kts | 187° |
| 2026-05-08 09:18 | 46.56627 | 1.03537 | 34988 ft | 463 kts | 187° |
| 2026-05-08 09:19 | 46.50174 | 1.03780 | 34975 ft | 471 kts | 174° |
| 2026-05-08 09:19 | 46.43769 | 1.05895 | 34984 ft | 472 kts | 171° |
| 2026-05-08 09:20 | 46.37420 | 1.08098 | 34980 ft | 472 kts | 171° |
| 2026-05-08 09:20 | 46.31034 | 1.10240 | 34977 ft | 471 kts | 172° |
| 2026-05-08 09:21 | 46.24646 | 1.12363 | 34977 ft | 471 kts | 172° |
| 2026-05-08 09:23 | 46.02343 | 1.19731 | 34997 ft | 473 kts | 172° |
| 2026-05-08 09:23 | 45.95910 | 1.21821 | 34976 ft | 474 kts | 172° |
| 2026-05-08 09:24 | 45.89487 | 1.23916 | 34994 ft | 473 kts | 172° |
| 2026-05-08 09:24 | 45.83111 | 1.26017 | 34996 ft | 473 kts | 172° |
| 2026-05-08 09:25 | 45.76691 | 1.28109 | 34978 ft | 473 kts | 172° |
| 2026-05-08 09:25 | 45.70284 | 1.30206 | 34992 ft | 472 kts | 172° |
| 2026-05-08 09:26 | 45.63882 | 1.32288 | 34980 ft | 472 kts | 172° |
| 2026-05-08 09:26 | 45.57477 | 1.34366 | 34985 ft | 472 kts | 172° |
| 2026-05-08 09:27 | 45.51140 | 1.36413 | 34971 ft | 470 kts | 172° |
| 2026-05-08 09:27 | 45.44764 | 1.38474 | 34980 ft | 470 kts | 172° |
| 2026-05-08 09:28 | 45.38394 | 1.40526 | 34983 ft | 469 kts | 172° |
| 2026-05-08 09:28 | 45.32034 | 1.42572 | 34981 ft | 468 kts | 172° |
| 2026-05-08 09:29 | 45.25727 | 1.44592 | 34988 ft | 468 kts | 172° |
| 2026-05-08 09:29 | 45.19379 | 1.46623 | 34992 ft | 468 kts | 172° |
| 2026-05-08 09:30 | 45.13046 | 1.48637 | 34984 ft | 465 kts | 172° |
| 2026-05-08 09:30 | 45.06738 | 1.50651 | 34993 ft | 465 kts | 172° |
| 2026-05-08 09:31 | 45.00474 | 1.52640 | 34999 ft | 464 kts | 173° |
| 2026-05-08 09:31 | 44.94143 | 1.54638 | 34982 ft | 466 kts | 173° |
| 2026-05-08 09:32 | 44.87819 | 1.56639 | 34978 ft | 466 kts | 173° |
| 2026-05-08 09:32 | 44.81499 | 1.58644 | 34985 ft | 466 kts | 173° |
| 2026-05-08 09:33 | 44.75217 | 1.60621 | 34982 ft | 466 kts | 173° |
| 2026-05-08 09:33 | 44.68893 | 1.62611 | 34981 ft | 465 kts | 173° |
| 2026-05-08 09:34 | 44.62573 | 1.64590 | 34982 ft | 465 kts | 173° |
| 2026-05-08 09:34 | 44.56275 | 1.66552 | 34973 ft | 461 kts | 173° |
| 2026-05-08 09:35 | 44.50002 | 1.68512 | 34989 ft | 462 kts | 173° |
| 2026-05-08 09:35 | 44.43772 | 1.70458 | 34991 ft | 462 kts | 173° |
| 2026-05-08 09:36 | 44.37516 | 1.72396 | 34976 ft | 458 kts | 173° |
| 2026-05-08 09:36 | 44.31311 | 1.74318 | 34980 ft | 456 kts | 173° |
| 2026-05-08 09:37 | 44.25087 | 1.75870 | 34984 ft | 454 kts | 176° |
| 2026-05-08 09:37 | 44.18851 | 1.77246 | 34974 ft | 452 kts | 177° |
| 2026-05-08 09:38 | 44.12695 | 1.78599 | 34971 ft | 451 kts | 177° |
| 2026-05-08 09:38 | 44.06494 | 1.79961 | 34976 ft | 451 kts | 177° |
| 2026-05-08 09:39 | 44.00294 | 1.81322 | 34962 ft | 452 kts | 176° |
| 2026-05-08 09:39 | 43.94135 | 1.82529 | 34970 ft | 443 kts | 181° |
| 2026-05-08 09:40 | 43.88039 | 1.83120 | 34971 ft | 442 kts | 182° |
| 2026-05-08 09:40 | 43.81902 | 1.83699 | 34977 ft | 442 kts | 182° |
| 2026-05-08 09:41 | 43.75790 | 1.84289 | 34968 ft | 440 kts | 181° |
| 2026-05-08 09:41 | 43.69686 | 1.84889 | 34966 ft | 440 kts | 181° |
| 2026-05-08 09:42 | 43.63579 | 1.85483 | 34967 ft | 440 kts | 181° |
| 2026-05-08 09:42 | 43.57531 | 1.86066 | 34960 ft | 437 kts | 181° |
| 2026-05-08 09:43 | 43.51461 | 1.86651 | 34966 ft | 437 kts | 181° |
| 2026-05-08 09:43 | 43.45398 | 1.87233 | 34967 ft | 437 kts | 181° |
| 2026-05-08 09:44 | 43.39333 | 1.87810 | 34962 ft | 435 kts | 182° |
| 2026-05-08 09:44 | 43.33351 | 1.88381 | 34963 ft | 434 kts | 182° |
| 2026-05-08 09:45 | 43.27332 | 1.88957 | 34967 ft | 434 kts | 181° |
| 2026-05-08 09:45 | 43.21314 | 1.89536 | 34968 ft | 434 kts | 181° |
| 2026-05-08 09:46 | 43.15308 | 1.90113 | 34961 ft | 432 kts | 181° |
| 2026-05-08 09:46 | 43.09315 | 1.90691 | 34963 ft | 432 kts | 181° |
| 2026-05-08 09:47 | 43.03337 | 1.91265 | 34955 ft | 436 kts | 182° |
| 2026-05-08 09:47 | 42.97301 | 1.91835 | 34942 ft | 432 kts | 182° |
| 2026-05-08 09:48 | 42.91301 | 1.92413 | 34961 ft | 432 kts | 182° |
| 2026-05-08 09:48 | 42.85308 | 1.92985 | 34957 ft | 432 kts | 182° |
| 2026-05-08 09:49 | 42.79315 | 1.93541 | 34955 ft | 432 kts | 182° |
| 2026-05-08 09:49 | 42.73365 | 1.94105 | 34967 ft | 432 kts | 182° |
| 2026-05-08 09:50 | 42.67369 | 1.94703 | 34968 ft | 434 kts | 180° |
| 2026-05-08 09:50 | 42.61376 | 1.95854 | 34970 ft | 435 kts | 178° |
| 2026-05-08 09:51 | 42.55409 | 1.97072 | 34969 ft | 432 kts | 178° |
| 2026-05-08 09:51 | 42.49495 | 1.98270 | 34985 ft | 432 kts | 178° |
| 2026-05-08 09:52 | 42.43543 | 1.99468 | 34992 ft | 432 kts | 178° |
| 2026-05-08 09:52 | 42.37588 | 2.00659 | 34984 ft | 432 kts | 178° |
| 2026-05-08 09:53 | 42.31654 | 2.01343 | 35000 ft | 427 kts | 182° |
| 2026-05-08 09:53 | 42.25771 | 2.01891 | 35010 ft | 427 kts | 182° |
| 2026-05-08 09:54 | 42.19840 | 2.02450 | 35007 ft | 429 kts | 182° |
| 2026-05-08 09:54 | 42.13912 | 2.03014 | 35014 ft | 428 kts | 182° |
| 2026-05-08 09:55 | 42.07987 | 2.03572 | 35016 ft | 426 kts | 182° |
| 2026-05-08 09:55 | 42.02056 | 2.04128 | 35014 ft | 427 kts | 181° |
| 2026-05-08 09:56 | 41.96157 | 2.04683 | 35007 ft | 426 kts | 181° |
| 2026-05-08 09:56 | 41.90242 | 2.05239 | 35018 ft | 426 kts | 181° |
| 2026-05-08 09:57 | 41.81368 | 2.06070 | 35026 ft | 426 kts | 181° |
| 2026-05-08 09:57 | 41.75494 | 2.06621 | 35015 ft | 426 kts | 181° |
| 2026-05-08 09:58 | 41.69620 | 2.07171 | 35024 ft | 422 kts | 182° |
| 2026-05-08 09:58 | 41.63763 | 2.07713 | 35030 ft | 422 kts | 182° |
| 2026-05-08 09:59 | 41.57903 | 2.08259 | 35047 ft | 422 kts | 182° |
| 2026-05-08 09:59 | 41.52045 | 2.08806 | 35037 ft | 421 kts | 182° |
| 2026-05-08 10:00 | 41.46244 | 2.09346 | 35039 ft | 420 kts | 182° |
| 2026-05-08 10:00 | 41.40410 | 2.09888 | 35046 ft | 420 kts | 182° |
| 2026-05-08 10:01 | 41.34576 | 2.10427 | 35040 ft | 421 kts | 182° |
| 2026-05-08 10:01 | 41.28752 | 2.11105 | 35046 ft | 420 kts | 179° |
| 2026-05-08 10:02 | 41.22955 | 2.12077 | 35052 ft | 420 kts | 179° |
| 2026-05-08 10:02 | 41.17200 | 2.13050 | 35049 ft | 420 kts | 179° |
| 2026-05-08 10:03 | 41.11407 | 2.14020 | 35050 ft | 420 kts | 179° |
| 2026-05-08 10:03 | 41.05599 | 2.14992 | 35044 ft | 421 kts | 178° |
| 2026-05-08 10:04 | 40.99788 | 2.15960 | 35040 ft | 421 kts | 178° |
| 2026-05-08 10:04 | 40.94013 | 2.16922 | 35039 ft | 421 kts | 178° |
| 2026-05-08 10:05 | 40.88200 | 2.17890 | 35028 ft | 421 kts | 178° |
| 2026-05-08 10:05 | 40.82388 | 2.18852 | 35037 ft | 421 kts | 178° |
| 2026-05-08 10:06 | 40.76574 | 2.19816 | 35036 ft | 421 kts | 178° |
| 2026-05-08 10:06 | 40.70757 | 2.20778 | 35034 ft | 421 kts | 178° |
| 2026-05-08 10:07 | 40.64988 | 2.21730 | 35036 ft | 421 kts | 178° |
| 2026-05-08 10:07 | 40.59172 | 2.22687 | 35036 ft | 421 kts | 178° |
| 2026-05-08 10:08 | 40.53356 | 2.23643 | 35035 ft | 421 kts | 178° |
| 2026-05-08 10:08 | 40.47544 | 2.24598 | 35035 ft | 421 kts | 178° |
| 2026-05-08 10:09 | 40.41738 | 2.25573 | 35030 ft | 421 kts | 177° |
| 2026-05-08 10:09 | 40.36004 | 2.27006 | 35033 ft | 423 kts | 175° |
| 2026-05-08 10:10 | 40.30236 | 2.28513 | 35033 ft | 422 kts | 175° |
| 2026-05-08 10:10 | 40.24457 | 2.30007 | 35019 ft | 425 kts | 175° |
| 2026-05-08 10:11 | 40.18667 | 2.31504 | 35021 ft | 423 kts | 175° |
| 2026-05-08 10:11 | 40.12926 | 2.32986 | 35027 ft | 423 kts | 175° |
| 2026-05-08 10:12 | 40.07152 | 2.34471 | 35025 ft | 423 kts | 175° |
| 2026-05-08 10:12 | 40.01375 | 2.35958 | 35024 ft | 423 kts | 175° |
| 2026-05-08 10:13 | 39.95598 | 2.37439 | 35017 ft | 423 kts | 175° |
| 2026-05-08 10:13 | 39.89860 | 2.38909 | 35018 ft | 422 kts | 175° |
| 2026-05-08 10:14 | 39.84156 | 2.40369 | 34431 ft | 417 kts | 175° |
| 2026-05-08 10:14 | 39.81297 | 2.41095 | 33590 ft | 420 kts | 175° |
| 2026-05-08 10:14 | 39.78425 | 2.41825 | 32881 ft | 421 kts | 175° |
| 2026-05-08 10:15 | 39.75544 | 2.42392 | 32209 ft | 415 kts | 182° |
| 2026-05-08 10:15 | 39.72692 | 2.42362 | 31594 ft | 407 kts | 190° |
| 2026-05-08 10:15 | 39.69885 | 2.41961 | 31007 ft | 405 kts | 192° |
| 2026-05-08 10:15 | 39.67092 | 2.41499 | 30431 ft | 405 kts | 192° |
| 2026-05-08 10:16 | 39.64300 | 2.41043 | 29761 ft | 406 kts | 192° |
| 2026-05-08 10:16 | 39.61531 | 2.40586 | 29005 ft | 406 kts | 193° |
| 2026-05-08 10:16 | 39.58797 | 2.39759 | 28268 ft | 402 kts | 202° |
| 2026-05-08 10:16 | 39.56252 | 2.38333 | 27572 ft | 397 kts | 212° |